sensor_id;sensor_type;location;lat;lon;timestamp;pressure;altitude;pressure_sealevel;temperature
20289;BMP180;10303;51.960;8.372;2024-03-08T00:00:24;100918.00;;;5.30
20289;BMP180;10303;51.960;8.372;2024-03-08T00:02:50;100919.00;;;5.30
20289;BMP180;10303;51.960;8.372;2024-03-08T00:05:17;100916.00;;;5.20
20289;BMP180;10303;51.960;8.372;2024-03-08T00:07:44;100917.00;;;5.20
20289;BMP180;10303;51.960;8.372;2024-03-08T00:10:12;100919.00;;;5.20
20289;BMP180;10303;51.960;8.372;2024-03-08T00:12:39;100911.00;;;5.20
20289;BMP180;10303;51.960;8.372;2024-03-08T00:15:09;100912.00;;;5.20
20289;BMP180;10303;51.960;8.372;2024-03-08T00:17:36;100909.00;;;5.10
20289;BMP180;10303;51.960;8.372;2024-03-08T00:20:04;100911.00;;;5.10
20289;BMP180;10303;51.960;8.372;2024-03-08T00:22:30;100925.00;;;5.10
20289;BMP180;10303;51.960;8.372;2024-03-08T00:24:56;100920.00;;;5.10
20289;BMP180;10303;51.960;8.372;2024-03-08T00:27:22;100905.00;;;5.10
20289;BMP180;10303;51.960;8.372;2024-03-08T00:29:48;100900.00;;;5.10
20289;BMP180;10303;51.960;8.372;2024-03-08T00:32:14;100905.00;;;5.10
20289;BMP180;10303;51.960;8.372;2024-03-08T00:34:40;100905.00;;;5.10
20289;BMP180;10303;51.960;8.372;2024-03-08T00:37:06;100897.00;;;5.00
20289;BMP180;10303;51.960;8.372;2024-03-08T00:39:32;100904.00;;;5.00
20289;BMP180;10303;51.960;8.372;2024-03-08T00:41:58;100887.00;;;5.00
20289;BMP180;10303;51.960;8.372;2024-03-08T00:44:24;100889.00;;;5.00
20289;BMP180;10303;51.960;8.372;2024-03-08T00:46:50;100895.00;;;4.90
20289;BMP180;10303;51.960;8.372;2024-03-08T00:49:16;100885.00;;;4.90
20289;BMP180;10303;51.960;8.372;2024-03-08T00:51:42;100897.00;;;4.90
20289;BMP180;10303;51.960;8.372;2024-03-08T00:54:09;100884.00;;;4.90
20289;BMP180;10303;51.960;8.372;2024-03-08T00:56:35;100886.00;;;4.90
20289;BMP180;10303;51.960;8.372;2024-03-08T00:59:01;100875.00;;;4.90
20289;BMP180;10303;51.960;8.372;2024-03-08T01:01:28;100869.00;;;4.90
20289;BMP180;10303;51.960;8.372;2024-03-08T01:03:55;100872.00;;;4.90
20289;BMP180;10303;51.960;8.372;2024-03-08T01:06:22;100868.00;;;4.90
20289;BMP180;10303;51.960;8.372;2024-03-08T01:08:48;100868.00;;;4.80
20289;BMP180;10303;51.960;8.372;2024-03-08T01:11:17;100863.00;;;4.90
20289;BMP180;10303;51.960;8.372;2024-03-08T01:13:43;100860.00;;;4.80
20289;BMP180;10303;51.960;8.372;2024-03-08T01:16:13;100860.00;;;4.80
20289;BMP180;10303;51.960;8.372;2024-03-08T01:18:39;100848.00;;;4.80
20289;BMP180;10303;51.960;8.372;2024-03-08T01:21:05;100847.00;;;4.80
20289;BMP180;10303;51.960;8.372;2024-03-08T01:23:31;100844.00;;;4.80
20289;BMP180;10303;51.960;8.372;2024-03-08T01:25:57;100843.00;;;4.80
20289;BMP180;10303;51.960;8.372;2024-03-08T01:28:26;100834.00;;;4.80
20289;BMP180;10303;51.960;8.372;2024-03-08T01:30:52;100834.00;;;4.80
20289;BMP180;10303;51.960;8.372;2024-03-08T01:33:25;100836.00;;;4.80
20289;BMP180;10303;51.960;8.372;2024-03-08T01:35:53;100821.00;;;4.80
20289;BMP180;10303;51.960;8.372;2024-03-08T01:38:20;100826.00;;;4.80
20289;BMP180;10303;51.960;8.372;2024-03-08T01:40:49;100824.00;;;4.80
20289;BMP180;10303;51.960;8.372;2024-03-08T01:43:26;100816.00;;;4.80
20289;BMP180;10303;51.960;8.372;2024-03-08T01:45:59;100817.00;;;4.80
20289;BMP180;10303;51.960;8.372;2024-03-08T01:48:29;100806.00;;;4.80
20289;BMP180;10303;51.960;8.372;2024-03-08T01:50:57;100817.00;;;4.80
20289;BMP180;10303;51.960;8.372;2024-03-08T01:53:25;100807.00;;;4.80
20289;BMP180;10303;51.960;8.372;2024-03-08T01:55:56;100806.00;;;4.80
20289;BMP180;10303;51.960;8.372;2024-03-08T01:58:23;100787.00;;;4.80
20289;BMP180;10303;51.960;8.372;2024-03-08T02:00:50;100800.00;;;4.70
20289;BMP180;10303;51.960;8.372;2024-03-08T02:03:18;100788.00;;;4.80
20289;BMP180;10303;51.960;8.372;2024-03-08T02:05:44;100789.00;;;4.80
20289;BMP180;10303;51.960;8.372;2024-03-08T02:08:11;100793.00;;;4.80
20289;BMP180;10303;51.960;8.372;2024-03-08T02:10:41;100794.00;;;4.80
20289;BMP180;10303;51.960;8.372;2024-03-08T02:13:08;100787.00;;;4.80
20289;BMP180;10303;51.960;8.372;2024-03-08T02:15:56;100795.00;;;4.80
20289;BMP180;10303;51.960;8.372;2024-03-08T02:18:23;100785.00;;;4.80
20289;BMP180;10303;51.960;8.372;2024-03-08T02:20:53;100783.00;;;4.80
20289;BMP180;10303;51.960;8.372;2024-03-08T02:23:20;100792.00;;;4.80
20289;BMP180;10303;51.960;8.372;2024-03-08T02:25:49;100792.00;;;4.80
20289;BMP180;10303;51.960;8.372;2024-03-08T02:28:16;100780.00;;;4.80
20289;BMP180;10303;51.960;8.372;2024-03-08T02:30:45;100775.00;;;4.80
20289;BMP180;10303;51.960;8.372;2024-03-08T02:33:15;100770.00;;;4.80
20289;BMP180;10303;51.960;8.372;2024-03-08T02:35:45;100766.00;;;4.80
20289;BMP180;10303;51.960;8.372;2024-03-08T02:38:16;100762.00;;;4.80
20289;BMP180;10303;51.960;8.372;2024-03-08T02:40:43;100767.00;;;4.80
20289;BMP180;10303;51.960;8.372;2024-03-08T02:43:10;100762.00;;;4.80
20289;BMP180;10303;51.960;8.372;2024-03-08T02:45:36;100768.00;;;4.80
20289;BMP180;10303;51.960;8.372;2024-03-08T02:48:03;100764.00;;;4.80
20289;BMP180;10303;51.960;8.372;2024-03-08T02:50:29;100757.00;;;4.80
20289;BMP180;10303;51.960;8.372;2024-03-08T02:52:55;100752.00;;;4.80
20289;BMP180;10303;51.960;8.372;2024-03-08T02:55:21;100754.00;;;4.80
20289;BMP180;10303;51.960;8.372;2024-03-08T02:57:46;100759.00;;;4.80
20289;BMP180;10303;51.960;8.372;2024-03-08T03:00:15;100756.00;;;4.80
20289;BMP180;10303;51.960;8.372;2024-03-08T03:02:41;100753.00;;;4.70
20289;BMP180;10303;51.960;8.372;2024-03-08T03:05:08;100750.00;;;4.70
20289;BMP180;10303;51.960;8.372;2024-03-08T03:07:35;100743.00;;;4.70
20289;BMP180;10303;51.960;8.372;2024-03-08T03:10:02;100751.00;;;4.70
20289;BMP180;10303;51.960;8.372;2024-03-08T03:12:29;100745.00;;;4.70
20289;BMP180;10303;51.960;8.372;2024-03-08T03:14:56;100741.00;;;4.70
20289;BMP180;10303;51.960;8.372;2024-03-08T03:17:26;100741.00;;;4.60
20289;BMP180;10303;51.960;8.372;2024-03-08T03:19:52;100730.00;;;4.60
20289;BMP180;10303;51.960;8.372;2024-03-08T03:22:19;100736.00;;;4.60
20289;BMP180;10303;51.960;8.372;2024-03-08T03:24:46;100733.00;;;4.60
20289;BMP180;10303;51.960;8.372;2024-03-08T03:27:13;100722.00;;;4.60
20289;BMP180;10303;51.960;8.372;2024-03-08T03:29:42;100725.00;;;4.60
20289;BMP180;10303;51.960;8.372;2024-03-08T03:32:12;100725.00;;;4.50
20289;BMP180;10303;51.960;8.372;2024-03-08T03:34:39;100710.00;;;4.50
20289;BMP180;10303;51.960;8.372;2024-03-08T03:37:05;100716.00;;;4.50
20289;BMP180;10303;51.960;8.372;2024-03-08T03:39:32;100718.00;;;4.50
20289;BMP180;10303;51.960;8.372;2024-03-08T03:42:03;100711.00;;;4.50
20289;BMP180;10303;51.960;8.372;2024-03-08T03:44:29;100726.00;;;4.50
20289;BMP180;10303;51.960;8.372;2024-03-08T03:46:55;100711.00;;;4.50
20289;BMP180;10303;51.960;8.372;2024-03-08T03:49:21;100708.00;;;4.50
20289;BMP180;10303;51.960;8.372;2024-03-08T03:51:47;100705.00;;;4.50
20289;BMP180;10303;51.960;8.372;2024-03-08T03:54:13;100697.00;;;4.50
20289;BMP180;10303;51.960;8.372;2024-03-08T03:56:39;100703.00;;;4.50
20289;BMP180;10303;51.960;8.372;2024-03-08T03:59:06;100702.00;;;4.50
20289;BMP180;10303;51.960;8.372;2024-03-08T04:01:33;100699.00;;;4.50
20289;BMP180;10303;51.960;8.372;2024-03-08T04:03:59;100689.00;;;4.50
20289;BMP180;10303;51.960;8.372;2024-03-08T04:06:26;100700.00;;;4.50
20289;BMP180;10303;51.960;8.372;2024-03-08T04:08:51;100692.00;;;4.50
20289;BMP180;10303;51.960;8.372;2024-03-08T04:11:17;100692.00;;;4.50
20289;BMP180;10303;51.960;8.372;2024-03-08T04:13:43;100692.00;;;4.50
20289;BMP180;10303;51.960;8.372;2024-03-08T04:16:09;100685.00;;;4.50
20289;BMP180;10303;51.960;8.372;2024-03-08T04:18:37;100684.00;;;4.50
20289;BMP180;10303;51.960;8.372;2024-03-08T04:21:05;100683.00;;;4.40
20289;BMP180;10303;51.960;8.372;2024-03-08T04:23:34;100681.00;;;4.40
20289;BMP180;10303;51.960;8.372;2024-03-08T04:26:03;100683.00;;;4.40
20289;BMP180;10303;51.960;8.372;2024-03-08T04:28:30;100665.00;;;4.40
20289;BMP180;10303;51.960;8.372;2024-03-08T04:30:57;100669.00;;;4.40
20289;BMP180;10303;51.960;8.372;2024-03-08T04:33:23;100663.00;;;4.40
20289;BMP180;10303;51.960;8.372;2024-03-08T04:35:49;100660.00;;;4.40
20289;BMP180;10303;51.960;8.372;2024-03-08T04:38:15;100660.00;;;4.30
20289;BMP180;10303;51.960;8.372;2024-03-08T04:40:42;100665.00;;;4.30
20289;BMP180;10303;51.960;8.372;2024-03-08T04:43:09;100662.00;;;4.30
20289;BMP180;10303;51.960;8.372;2024-03-08T04:45:36;100656.00;;;4.30
20289;BMP180;10303;51.960;8.372;2024-03-08T04:48:03;100656.00;;;4.30
20289;BMP180;10303;51.960;8.372;2024-03-08T04:50:29;100648.00;;;4.30
20289;BMP180;10303;51.960;8.372;2024-03-08T04:52:56;100645.00;;;4.20
20289;BMP180;10303;51.960;8.372;2024-03-08T04:55:22;100650.00;;;4.20
20289;BMP180;10303;51.960;8.372;2024-03-08T04:57:48;100636.00;;;4.20
20289;BMP180;10303;51.960;8.372;2024-03-08T05:00:15;100635.00;;;4.20
20289;BMP180;10303;51.960;8.372;2024-03-08T05:02:41;100628.00;;;4.20
20289;BMP180;10303;51.960;8.372;2024-03-08T05:05:08;100638.00;;;4.20
20289;BMP180;10303;51.960;8.372;2024-03-08T05:07:41;100644.00;;;4.10
20289;BMP180;10303;51.960;8.372;2024-03-08T05:10:09;100636.00;;;4.20
20289;BMP180;10303;51.960;8.372;2024-03-08T05:12:36;100627.00;;;4.10
20289;BMP180;10303;51.960;8.372;2024-03-08T05:15:02;100629.00;;;4.10
20289;BMP180;10303;51.960;8.372;2024-03-08T05:17:28;100631.00;;;4.10
20289;BMP180;10303;51.960;8.372;2024-03-08T05:19:55;100628.00;;;4.10
20289;BMP180;10303;51.960;8.372;2024-03-08T05:22:22;100631.00;;;4.10
20289;BMP180;10303;51.960;8.372;2024-03-08T05:24:48;100632.00;;;4.10
20289;BMP180;10303;51.960;8.372;2024-03-08T05:27:14;100625.00;;;4.00
20289;BMP180;10303;51.960;8.372;2024-03-08T05:29:40;100623.00;;;4.00
20289;BMP180;10303;51.960;8.372;2024-03-08T05:32:07;100619.00;;;4.00
20289;BMP180;10303;51.960;8.372;2024-03-08T05:34:33;100630.00;;;4.00
20289;BMP180;10303;51.960;8.372;2024-03-08T05:36:59;100631.00;;;4.00
20289;BMP180;10303;51.960;8.372;2024-03-08T05:39:26;100624.00;;;4.00
20289;BMP180;10303;51.960;8.372;2024-03-08T05:41:52;100624.00;;;4.00
20289;BMP180;10303;51.960;8.372;2024-03-08T05:44:21;100624.00;;;3.90
20289;BMP180;10303;51.960;8.372;2024-03-08T05:46:47;100633.00;;;3.90
20289;BMP180;10303;51.960;8.372;2024-03-08T05:49:13;100618.00;;;3.90
20289;BMP180;10303;51.960;8.372;2024-03-08T05:51:40;100630.00;;;3.90
20289;BMP180;10303;51.960;8.372;2024-03-08T05:54:10;100637.00;;;3.90
20289;BMP180;10303;51.960;8.372;2024-03-08T05:56:37;100636.00;;;3.90
20289;BMP180;10303;51.960;8.372;2024-03-08T05:59:04;100623.00;;;3.90
20289;BMP180;10303;51.960;8.372;2024-03-08T06:01:31;100630.00;;;3.90
20289;BMP180;10303;51.960;8.372;2024-03-08T06:03:57;100624.00;;;3.80
20289;BMP180;10303;51.960;8.372;2024-03-08T06:06:24;100637.00;;;3.80
20289;BMP180;10303;51.960;8.372;2024-03-08T06:08:51;100641.00;;;3.80
20289;BMP180;10303;51.960;8.372;2024-03-08T06:11:20;100630.00;;;3.80
20289;BMP180;10303;51.960;8.372;2024-03-08T06:13:47;100629.00;;;3.80
20289;BMP180;10303;51.960;8.372;2024-03-08T06:16:13;100634.00;;;3.80
20289;BMP180;10303;51.960;8.372;2024-03-08T06:18:39;100632.00;;;3.80
20289;BMP180;10303;51.960;8.372;2024-03-08T06:21:05;100622.00;;;3.80
20289;BMP180;10303;51.960;8.372;2024-03-08T06:23:35;100634.00;;;3.80
20289;BMP180;10303;51.960;8.372;2024-03-08T06:26:07;100626.00;;;3.80
20289;BMP180;10303;51.960;8.372;2024-03-08T06:28:34;100622.00;;;3.80
20289;BMP180;10303;51.960;8.372;2024-03-08T06:31:03;100616.00;;;3.80
20289;BMP180;10303;51.960;8.372;2024-03-08T06:33:30;100622.00;;;3.90
20289;BMP180;10303;51.960;8.372;2024-03-08T06:35:58;100618.00;;;3.90
20289;BMP180;10303;51.960;8.372;2024-03-08T06:38:27;100617.00;;;3.90
20289;BMP180;10303;51.960;8.372;2024-03-08T06:40:53;100629.00;;;3.90
20289;BMP180;10303;51.960;8.372;2024-03-08T06:43:20;100616.00;;;3.90
20289;BMP180;10303;51.960;8.372;2024-03-08T06:45:46;100615.00;;;4.00
20289;BMP180;10303;51.960;8.372;2024-03-08T06:48:17;100609.00;;;4.00
20289;BMP180;10303;51.960;8.372;2024-03-08T06:50:45;100613.00;;;4.00
20289;BMP180;10303;51.960;8.372;2024-03-08T06:53:11;100616.00;;;4.10
20289;BMP180;10303;51.960;8.372;2024-03-08T06:55:37;100605.00;;;4.10
20289;BMP180;10303;51.960;8.372;2024-03-08T06:58:04;100612.00;;;4.10
20289;BMP180;10303;51.960;8.372;2024-03-08T07:00:30;100628.00;;;4.20
20289;BMP180;10303;51.960;8.372;2024-03-08T07:02:56;100613.00;;;4.20
20289;BMP180;10303;51.960;8.372;2024-03-08T07:05:30;100615.00;;;4.30
20289;BMP180;10303;51.960;8.372;2024-03-08T07:07:56;100621.00;;;4.30
20289;BMP180;10303;51.960;8.372;2024-03-08T07:10:22;100625.00;;;4.40
20289;BMP180;10303;51.960;8.372;2024-03-08T07:12:52;100630.00;;;4.40
20289;BMP180;10303;51.960;8.372;2024-03-08T07:15:19;100625.00;;;4.50
20289;BMP180;10303;51.960;8.372;2024-03-08T07:17:46;100622.00;;;4.60
20289;BMP180;10303;51.960;8.372;2024-03-08T07:20:13;100632.00;;;4.60
20289;BMP180;10303;51.960;8.372;2024-03-08T07:22:41;100619.00;;;4.70
20289;BMP180;10303;51.960;8.372;2024-03-08T07:25:09;100617.00;;;4.70
20289;BMP180;10303;51.960;8.372;2024-03-08T07:27:54;100631.00;;;4.80
20289;BMP180;10303;51.960;8.372;2024-03-08T07:30:25;100622.00;;;4.90
20289;BMP180;10303;51.960;8.372;2024-03-08T07:33:10;100625.00;;;5.00
20289;BMP180;10303;51.960;8.372;2024-03-08T07:35:40;100629.00;;;5.10
20289;BMP180;10303;51.960;8.372;2024-03-08T07:38:07;100624.00;;;5.10
20289;BMP180;10303;51.960;8.372;2024-03-08T07:40:38;100610.00;;;5.20
20289;BMP180;10303;51.960;8.372;2024-03-08T07:43:07;100619.00;;;5.20
20289;BMP180;10303;51.960;8.372;2024-03-08T07:45:33;100612.00;;;5.30
20289;BMP180;10303;51.960;8.372;2024-03-08T07:48:00;100608.00;;;5.40
20289;BMP180;10303;51.960;8.372;2024-03-08T07:50:26;100610.00;;;5.50
20289;BMP180;10303;51.960;8.372;2024-03-08T07:52:52;100597.00;;;5.50
20289;BMP180;10303;51.960;8.372;2024-03-08T07:55:17;100602.00;;;5.60
20289;BMP180;10303;51.960;8.372;2024-03-08T07:57:44;100609.00;;;5.70
20289;BMP180;10303;51.960;8.372;2024-03-08T08:00:10;100594.00;;;5.80
20289;BMP180;10303;51.960;8.372;2024-03-08T08:02:36;100602.00;;;5.90
20289;BMP180;10303;51.960;8.372;2024-03-08T08:05:03;100602.00;;;6.00
20289;BMP180;10303;51.960;8.372;2024-03-08T08:07:29;100609.00;;;6.10
20289;BMP180;10303;51.960;8.372;2024-03-08T08:09:55;100589.00;;;6.10
20289;BMP180;10303;51.960;8.372;2024-03-08T08:12:21;100592.00;;;6.20
20289;BMP180;10303;51.960;8.372;2024-03-08T08:14:47;100597.00;;;6.30
20289;BMP180;10303;51.960;8.372;2024-03-08T08:17:13;100602.00;;;6.40
20289;BMP180;10303;51.960;8.372;2024-03-08T08:19:41;100589.00;;;6.50
20289;BMP180;10303;51.960;8.372;2024-03-08T08:22:07;100591.00;;;6.60
20289;BMP180;10303;51.960;8.372;2024-03-08T08:24:35;100589.00;;;6.70
20289;BMP180;10303;51.960;8.372;2024-03-08T08:27:03;100583.00;;;6.80
20289;BMP180;10303;51.960;8.372;2024-03-08T08:29:29;100580.00;;;6.90
20289;BMP180;10303;51.960;8.372;2024-03-08T08:31:58;100579.00;;;6.90
20289;BMP180;10303;51.960;8.372;2024-03-08T08:34:25;100574.00;;;7.00
20289;BMP180;10303;51.960;8.372;2024-03-08T08:36:53;100570.00;;;7.10
20289;BMP180;10303;51.960;8.372;2024-03-08T08:39:19;100582.00;;;7.20
20289;BMP180;10303;51.960;8.372;2024-03-08T08:41:45;100580.00;;;7.30
20289;BMP180;10303;51.960;8.372;2024-03-08T08:44:11;100571.00;;;7.40
20289;BMP180;10303;51.960;8.372;2024-03-08T08:46:38;100557.00;;;7.50
20289;BMP180;10303;51.960;8.372;2024-03-08T08:49:05;100568.00;;;7.60
20289;BMP180;10303;51.960;8.372;2024-03-08T08:51:32;100569.00;;;7.80
20289;BMP180;10303;51.960;8.372;2024-03-08T08:54:01;100572.00;;;7.90
20289;BMP180;10303;51.960;8.372;2024-03-08T08:56:27;100560.00;;;8.20
20289;BMP180;10303;51.960;8.372;2024-03-08T08:58:54;100566.00;;;8.40
20289;BMP180;10303;51.960;8.372;2024-03-08T09:01:20;100554.00;;;8.60
20289;BMP180;10303;51.960;8.372;2024-03-08T09:03:46;100556.00;;;8.90
20289;BMP180;10303;51.960;8.372;2024-03-08T09:06:13;100554.00;;;9.10
20289;BMP180;10303;51.960;8.372;2024-03-08T09:08:39;100552.00;;;9.40
20289;BMP180;10303;51.960;8.372;2024-03-08T09:11:05;100544.00;;;9.70
20289;BMP180;10303;51.960;8.372;2024-03-08T09:13:32;100551.00;;;9.90
20289;BMP180;10303;51.960;8.372;2024-03-08T09:16:00;100546.00;;;10.20
20289;BMP180;10303;51.960;8.372;2024-03-08T09:18:26;100544.00;;;10.40
20289;BMP180;10303;51.960;8.372;2024-03-08T09:20:51;100529.00;;;10.60
20289;BMP180;10303;51.960;8.372;2024-03-08T09:23:22;100532.00;;;10.80
20289;BMP180;10303;51.960;8.372;2024-03-08T09:25:48;100532.00;;;11.00
20289;BMP180;10303;51.960;8.372;2024-03-08T09:28:14;100532.00;;;11.20
20289;BMP180;10303;51.960;8.372;2024-03-08T09:30:41;100526.00;;;11.50
20289;BMP180;10303;51.960;8.372;2024-03-08T09:33:07;100522.00;;;11.70
20289;BMP180;10303;51.960;8.372;2024-03-08T09:35:33;100516.00;;;11.90
20289;BMP180;10303;51.960;8.372;2024-03-08T09:37:59;100509.00;;;12.10
20289;BMP180;10303;51.960;8.372;2024-03-08T09:40:25;100520.00;;;12.30
20289;BMP180;10303;51.960;8.372;2024-03-08T09:42:52;100511.00;;;12.40
20289;BMP180;10303;51.960;8.372;2024-03-08T09:45:20;100507.00;;;12.60
20289;BMP180;10303;51.960;8.372;2024-03-08T09:47:51;100500.00;;;12.80
20289;BMP180;10303;51.960;8.372;2024-03-08T09:50:17;100490.00;;;13.00
20289;BMP180;10303;51.960;8.372;2024-03-08T09:52:48;100487.00;;;13.20
20289;BMP180;10303;51.960;8.372;2024-03-08T09:55:16;100485.00;;;13.40
20289;BMP180;10303;51.960;8.372;2024-03-08T09:57:44;100483.00;;;13.60
20289;BMP180;10303;51.960;8.372;2024-03-08T10:00:33;100478.00;;;13.80
20289;BMP180;10303;51.960;8.372;2024-03-08T10:03:03;100481.00;;;14.00
20289;BMP180;10303;51.960;8.372;2024-03-08T10:05:30;100475.00;;;14.10
20289;BMP180;10303;51.960;8.372;2024-03-08T10:07:58;100472.00;;;14.30
20289;BMP180;10303;51.960;8.372;2024-03-08T10:10:24;100472.00;;;14.40
20289;BMP180;10303;51.960;8.372;2024-03-08T10:12:51;100473.00;;;14.50
20289;BMP180;10303;51.960;8.372;2024-03-08T10:15:17;100472.00;;;14.60
20289;BMP180;10303;51.960;8.372;2024-03-08T10:17:44;100459.00;;;14.70
20289;BMP180;10303;51.960;8.372;2024-03-08T10:20:18;100449.00;;;14.70
20289;BMP180;10303;51.960;8.372;2024-03-08T10:22:44;100447.00;;;14.80
20289;BMP180;10303;51.960;8.372;2024-03-08T10:25:11;100442.00;;;14.90
20289;BMP180;10303;51.960;8.372;2024-03-08T10:27:41;100444.00;;;14.90
20289;BMP180;10303;51.960;8.372;2024-03-08T10:30:16;100447.00;;;15.00
20289;BMP180;10303;51.960;8.372;2024-03-08T10:32:47;100442.00;;;15.10
20289;BMP180;10303;51.960;8.372;2024-03-08T10:35:14;100441.00;;;15.30
20289;BMP180;10303;51.960;8.372;2024-03-08T10:37:50;100439.00;;;15.50
20289;BMP180;10303;51.960;8.372;2024-03-08T10:40:26;100430.00;;;15.70
20289;BMP180;10303;51.960;8.372;2024-03-08T10:42:55;100432.00;;;15.80
20289;BMP180;10303;51.960;8.372;2024-03-08T10:45:41;100429.00;;;16.00
20289;BMP180;10303;51.960;8.372;2024-03-08T10:48:31;100425.00;;;16.10
20289;BMP180;10303;51.960;8.372;2024-03-08T10:51:03;100423.00;;;16.30
20289;BMP180;10303;51.960;8.372;2024-03-08T10:53:29;100419.00;;;16.40
20289;BMP180;10303;51.960;8.372;2024-03-08T10:55:59;100410.00;;;16.50
20289;BMP180;10303;51.960;8.372;2024-03-08T10:58:27;100409.00;;;16.60
20289;BMP180;10303;51.960;8.372;2024-03-08T11:00:55;100411.00;;;16.60
20289;BMP180;10303;51.960;8.372;2024-03-08T11:03:48;100403.00;;;16.60
20289;BMP180;10303;51.960;8.372;2024-03-08T11:09:28;100385.00;;;16.50
20289;BMP180;10303;51.960;8.372;2024-03-08T11:12:36;100396.00;;;16.70
20289;BMP180;10303;51.960;8.372;2024-03-08T11:15:12;100388.00;;;16.80
20289;BMP180;10303;51.960;8.372;2024-03-08T11:20:12;100378.00;;;17.30
20289;BMP180;10303;51.960;8.372;2024-03-08T11:22:49;100380.00;;;17.50
20289;BMP180;10303;51.960;8.372;2024-03-08T11:25:39;100366.00;;;17.60
20289;BMP180;10303;51.960;8.372;2024-03-08T11:28:17;100375.00;;;17.70
20289;BMP180;10303;51.960;8.372;2024-03-08T11:33:39;100366.00;;;17.90
20289;BMP180;10303;51.960;8.372;2024-03-08T11:36:23;100367.00;;;18.00
20289;BMP180;10303;51.960;8.372;2024-03-08T11:38:52;100355.00;;;18.00
20289;BMP180;10303;51.960;8.372;2024-03-08T11:41:20;100358.00;;;18.10
20289;BMP180;10303;51.960;8.372;2024-03-08T11:43:47;100355.00;;;18.10
20289;BMP180;10303;51.960;8.372;2024-03-08T11:46:15;100356.00;;;18.20
20289;BMP180;10303;51.960;8.372;2024-03-08T11:48:44;100339.00;;;18.30
20289;BMP180;10303;51.960;8.372;2024-03-08T11:51:14;100338.00;;;18.40
20289;BMP180;10303;51.960;8.372;2024-03-08T11:53:41;100335.00;;;18.50
20289;BMP180;10303;51.960;8.372;2024-03-08T11:56:12;100336.00;;;18.60
20289;BMP180;10303;51.960;8.372;2024-03-08T11:58:39;100322.00;;;18.70
20289;BMP180;10303;51.960;8.372;2024-03-08T12:01:10;100308.00;;;18.80
20289;BMP180;10303;51.960;8.372;2024-03-08T12:03:40;100308.00;;;19.00
20289;BMP180;10303;51.960;8.372;2024-03-08T12:06:11;100301.00;;;19.10
20289;BMP180;10303;51.960;8.372;2024-03-08T12:08:39;100299.00;;;19.30
20289;BMP180;10303;51.960;8.372;2024-03-08T12:11:05;100292.00;;;19.50
20289;BMP180;10303;51.960;8.372;2024-03-08T12:13:33;100289.00;;;19.50
20289;BMP180;10303;51.960;8.372;2024-03-08T12:16:03;100293.00;;;19.50
20289;BMP180;10303;51.960;8.372;2024-03-08T12:18:37;100288.00;;;19.50
20289;BMP180;10303;51.960;8.372;2024-03-08T12:21:12;100284.00;;;19.50
20289;BMP180;10303;51.960;8.372;2024-03-08T12:23:40;100288.00;;;19.60
20289;BMP180;10303;51.960;8.372;2024-03-08T12:26:17;100276.00;;;19.60
20289;BMP180;10303;51.960;8.372;2024-03-08T12:28:45;100272.00;;;19.70
20289;BMP180;10303;51.960;8.372;2024-03-08T12:31:16;100269.00;;;19.70
20289;BMP180;10303;51.960;8.372;2024-03-08T12:33:53;100272.00;;;19.80
20289;BMP180;10303;51.960;8.372;2024-03-08T12:36:20;100264.00;;;19.80
20289;BMP180;10303;51.960;8.372;2024-03-08T12:38:47;100264.00;;;19.90
20289;BMP180;10303;51.960;8.372;2024-03-08T12:41:18;100262.00;;;19.90
20289;BMP180;10303;51.960;8.372;2024-03-08T12:43:46;100254.00;;;20.00
20289;BMP180;10303;51.960;8.372;2024-03-08T12:46:20;100254.00;;;20.00
20289;BMP180;10303;51.960;8.372;2024-03-08T12:48:46;100253.00;;;20.10
20289;BMP180;10303;51.960;8.372;2024-03-08T12:51:17;100250.00;;;20.20
20289;BMP180;10303;51.960;8.372;2024-03-08T12:53:44;100241.00;;;20.20
20289;BMP180;10303;51.960;8.372;2024-03-08T12:56:12;100239.00;;;20.20
20289;BMP180;10303;51.960;8.372;2024-03-08T12:58:38;100233.00;;;20.20
20289;BMP180;10303;51.960;8.372;2024-03-08T13:01:05;100218.00;;;20.20
20289;BMP180;10303;51.960;8.372;2024-03-08T13:03:34;100220.00;;;20.10
20289;BMP180;10303;51.960;8.372;2024-03-08T13:06:03;100222.00;;;20.00
20289;BMP180;10303;51.960;8.372;2024-03-08T13:08:37;100215.00;;;20.00
20289;BMP180;10303;51.960;8.372;2024-03-08T13:11:10;100216.00;;;20.00
20289;BMP180;10303;51.960;8.372;2024-03-08T13:13:43;100202.00;;;19.90
20289;BMP180;10303;51.960;8.372;2024-03-08T13:16:10;100203.00;;;19.80
20289;BMP180;10303;51.960;8.372;2024-03-08T13:18:38;100193.00;;;19.80
20289;BMP180;10303;51.960;8.372;2024-03-08T13:21:04;100183.00;;;19.80
20289;BMP180;10303;51.960;8.372;2024-03-08T13:23:34;100183.00;;;19.60
20289;BMP180;10303;51.960;8.372;2024-03-08T13:26:13;100189.00;;;19.40
20289;BMP180;10303;51.960;8.372;2024-03-08T13:28:51;100173.00;;;19.20
20289;BMP180;10303;51.960;8.372;2024-03-08T13:31:22;100170.00;;;19.00
20289;BMP180;10303;51.960;8.372;2024-03-08T13:33:48;100164.00;;;19.00
20289;BMP180;10303;51.960;8.372;2024-03-08T13:36:14;100171.00;;;18.90
20289;BMP180;10303;51.960;8.372;2024-03-08T13:38:47;100160.00;;;18.80
20289;BMP180;10303;51.960;8.372;2024-03-08T13:41:15;100158.00;;;18.80
20289;BMP180;10303;51.960;8.372;2024-03-08T13:43:47;100162.00;;;18.70
20289;BMP180;10303;51.960;8.372;2024-03-08T13:46:17;100152.00;;;18.60
20289;BMP180;10303;51.960;8.372;2024-03-08T13:48:43;100158.00;;;18.50
20289;BMP180;10303;51.960;8.372;2024-03-08T13:51:09;100149.00;;;18.40
20289;BMP180;10303;51.960;8.372;2024-03-08T13:53:39;100153.00;;;18.30
20289;BMP180;10303;51.960;8.372;2024-03-08T13:56:06;100147.00;;;18.20
20289;BMP180;10303;51.960;8.372;2024-03-08T13:58:32;100139.00;;;18.10
20289;BMP180;10303;51.960;8.372;2024-03-08T14:00:58;100137.00;;;18.10
20289;BMP180;10303;51.960;8.372;2024-03-08T14:03:24;100141.00;;;18.10
20289;BMP180;10303;51.960;8.372;2024-03-08T14:05:50;100122.00;;;18.00
20289;BMP180;10303;51.960;8.372;2024-03-08T14:08:16;100121.00;;;17.90
20289;BMP180;10303;51.960;8.372;2024-03-08T14:10:43;100115.00;;;17.80
20289;BMP180;10303;51.960;8.372;2024-03-08T14:13:12;100116.00;;;17.80
20289;BMP180;10303;51.960;8.372;2024-03-08T14:15:41;100105.00;;;17.80
20289;BMP180;10303;51.960;8.372;2024-03-08T14:18:08;100115.00;;;17.80